createdAt,value
2023-04-04T00:01:35.832Z,16.57
2023-04-04T00:06:44.542Z,16.73
2023-04-04T00:11:48.153Z,16.63
2023-04-04T00:16:51.789Z,16.83
2023-04-04T00:21:56.594Z,15.80
2023-04-04T00:32:03.861Z,14.32
2023-04-04T00:37:12.237Z,13.65
2023-04-04T00:42:15.739Z,13.70
2023-04-04T00:47:19.347Z,13.68
2023-04-04T00:52:24.216Z,13.88
2023-04-04T01:02:33.557Z,13.45
2023-04-04T01:07:38.719Z,12.65
2023-04-04T01:12:43.522Z,12.32
2023-04-04T01:22:53.135Z,11.35
2023-04-04T01:27:58.069Z,11.60
2023-04-04T01:38:17.025Z,11.30
2023-04-04T01:43:22.035Z,12.15
2023-04-04T01:48:25.951Z,11.75
2023-04-04T01:53:29.509Z,11.50
2023-04-04T01:58:34.427Z,11.70
2023-04-04T02:08:40.977Z,11.15
2023-04-04T02:13:45.973Z,11.55
2023-04-04T02:18:49.942Z,11.55
2023-04-04T02:23:53.367Z,11.40
2023-04-04T02:28:58.154Z,10.88
2023-04-04T02:39:06.025Z,10.82
2023-04-04T02:44:11.121Z,11.60
2023-04-04T02:49:14.597Z,11.30
2023-04-04T02:54:17.995Z,11.65
2023-04-04T02:59:22.931Z,11.65
2023-04-04T03:04:26.397Z,11.13
2023-04-04T03:09:29.859Z,12.27
2023-04-04T03:14:34.737Z,12.07
2023-04-04T03:24:41.339Z,12.13
2023-04-04T03:29:46.213Z,11.48
2023-04-04T03:39:52.873Z,11.88
2023-04-04T03:44:57.686Z,13.18
2023-04-04T03:55:04.892Z,11.30
2023-04-04T04:00:11.217Z,11.52
2023-04-04T04:05:14.846Z,12.45
2023-04-04T04:10:18.523Z,12.70
2023-04-04T04:15:23.464Z,12.02
2023-04-04T04:25:30.066Z,11.25
2023-04-04T04:30:34.903Z,11.27
2023-04-04T04:40:43.177Z,12.00
2023-04-04T04:45:48.620Z,12.30
2023-04-04T04:50:52.302Z,11.77
2023-04-04T04:55:55.768Z,12.25
2023-04-04T05:01:01.156Z,12.63
2023-04-04T05:06:04.829Z,12.43
2023-04-04T05:11:08.343Z,12.85
2023-04-04T05:16:13.274Z,12.18
2023-04-04T05:21:17.168Z,12.48
2023-04-04T05:26:20.996Z,12.67
2023-04-04T05:31:25.897Z,13.02
2023-04-04T05:36:29.785Z,12.32
2023-04-04T05:41:33.473Z,13.67
2023-04-04T05:46:38.379Z,12.10
2023-04-04T05:51:42.039Z,11.98
2023-04-04T05:56:45.558Z,11.90
2023-04-04T06:01:50.433Z,10.77
2023-04-04T06:11:57.185Z,11.07
2023-04-04T06:17:02.316Z,11.52
2023-04-04T06:22:05.828Z,10.65
2023-04-04T06:27:09.422Z,10.85
2023-04-04T06:32:14.257Z,10.88
2023-04-04T06:42:20.847Z,10.55
2023-04-04T06:47:25.780Z,9.93
2023-04-04T06:52:29.482Z,9.63
2023-04-04T06:57:33.303Z,9.57
2023-04-04T07:02:38.409Z,9.23
2023-04-04T07:07:42.177Z,9.82
2023-04-04T07:12:45.603Z,10.65
2023-04-04T07:17:50.855Z,9.35
2023-04-04T07:22:54.537Z,9.63
2023-04-04T07:28:09.616Z,8.07
2023-04-04T07:33:17.466Z,9.25
2023-04-04T07:38:21.293Z,8.88
2023-04-04T07:43:24.789Z,9.07
2023-04-04T07:48:29.585Z,8.80
2023-04-04T07:53:33.314Z,8.18
2023-04-04T07:58:37.476Z,9.07
2023-04-04T08:03:42.509Z,8.70
2023-04-04T08:08:47.266Z,8.48
2023-04-04T08:18:55.374Z,9.30
2023-04-04T08:23:58.872Z,8.98
2023-04-04T08:29:02.832Z,8.75
2023-04-04T08:34:08.486Z,8.75
2023-04-04T08:39:12.496Z,8.35
2023-04-04T08:44:20.749Z,8.45
2023-04-04T08:49:28.009Z,7.93
2023-04-04T08:54:33.228Z,7.00
2023-04-04T08:59:37.207Z,6.95
2023-04-04T09:04:51.345Z,7.50
2023-04-04T09:10:04.654Z,6.70
2023-04-04T09:15:10.093Z,6.40
2023-04-04T09:20:41.202Z,5.45
2023-04-04T09:26:02.564Z,5.38
2023-04-04T09:31:12.958Z,5.68
2023-04-04T09:36:18.546Z,5.50
2023-04-04T09:41:22.360Z,5.35
2023-04-04T09:46:27.340Z,5.75
2023-04-04T09:51:37.505Z,5.05
2023-04-04T09:56:43.355Z,5.22
2023-04-04T10:01:47.404Z,5.05
2023-04-04T10:06:55.959Z,4.97
2023-04-04T10:12:10.854Z,4.80
2023-04-04T10:17:14.931Z,4.85
2023-04-04T10:22:22.314Z,5.18
2023-04-04T10:27:30.639Z,5.50
2023-04-04T10:32:44.834Z,5.93
2023-04-04T10:37:55.783Z,5.53
2023-04-04T10:43:04.129Z,4.90
2023-04-04T10:48:10.603Z,5.40
2023-04-04T10:53:33.610Z,5.30
2023-04-04T10:58:41.840Z,5.50
2023-04-04T11:04:21.190Z,5.80
2023-04-04T11:09:54.221Z,4.75
2023-04-04T11:14:59.710Z,5.40
2023-04-04T11:20:04.231Z,5.40
2023-04-04T11:30:30.242Z,5.55
2023-04-04T11:35:33.888Z,5.30
2023-04-04T11:40:42.225Z,5.90
2023-04-04T11:45:48.006Z,5.30
2023-04-04T11:50:51.528Z,5.97
2023-04-04T11:55:56.722Z,5.82
2023-04-04T12:01:02.574Z,5.82
2023-04-04T12:06:06.440Z,5.70
2023-04-04T12:11:11.219Z,5.30
2023-04-04T12:16:16.078Z,5.88
2023-04-04T12:21:19.535Z,6.72
2023-04-04T12:26:23.628Z,7.10
2023-04-04T12:31:29.253Z,6.57
2023-04-04T12:36:34.234Z,6.50
2023-04-04T12:41:37.861Z,6.20
2023-04-04T12:46:45.310Z,6.00
2023-04-04T12:51:50.402Z,6.35
2023-04-04T12:56:57.089Z,6.78
2023-04-04T13:02:03.408Z,6.00
2023-04-04T13:07:06.972Z,6.80
2023-04-04T13:12:12.305Z,5.80
2023-04-04T13:17:17.279Z,7.03
2023-04-04T13:22:20.980Z,6.35
2023-04-04T13:27:28.624Z,6.53
2023-04-04T13:32:33.501Z,6.03
2023-04-04T13:37:37.532Z,6.43
2023-04-04T13:42:40.993Z,6.18
2023-04-04T13:47:50.330Z,5.15
2023-04-04T13:52:54.813Z,6.25
2023-04-04T14:03:04.049Z,5.30
2023-04-04T14:08:08.296Z,5.00
2023-04-04T14:13:11.985Z,4.85
2023-04-04T14:18:17.001Z,5.00
2023-04-04T14:23:21.444Z,4.72
2023-04-04T14:28:25.013Z,5.18
2023-04-04T14:33:30.005Z,4.90
2023-04-04T14:38:36.462Z,5.38
2023-04-04T14:43:39.869Z,5.03
2023-04-04T14:48:45.021Z,4.57
2023-04-04T14:53:52.506Z,4.63
2023-04-04T14:58:57.077Z,4.68
2023-04-04T15:09:06.831Z,4.63
2023-04-04T15:19:14.853Z,4.85
2023-04-04T15:24:18.278Z,5.43
2023-04-04T15:29:21.888Z,4.60
2023-04-04T15:34:26.981Z,5.00
2023-04-04T15:39:31.691Z,5.07
2023-04-04T15:44:38.293Z,4.90
2023-04-04T15:49:43.109Z,5.45
2023-04-04T15:54:46.614Z,5.90
2023-04-04T15:59:50.963Z,6.60
2023-04-04T16:04:57.840Z,6.95
2023-04-04T16:10:01.429Z,7.38
2023-04-04T16:15:07.924Z,7.05
2023-04-04T16:20:13.726Z,6.80
2023-04-04T16:25:17.435Z,6.50
2023-04-04T16:30:21.074Z,7.22
2023-04-04T16:35:46.300Z,13.23
2023-04-04T16:40:49.998Z,10.48
2023-04-04T16:45:53.549Z,8.20
2023-04-04T16:50:58.408Z,8.40
2023-04-04T16:56:01.936Z,8.07
2023-04-04T17:01:06.245Z,7.72
2023-04-04T17:06:11.621Z,8.27
2023-04-04T17:11:15.680Z,9.07
2023-04-04T17:16:19.167Z,8.40
2023-04-04T17:21:24.153Z,9.27
2023-04-04T17:26:28.178Z,9.20
2023-04-04T17:31:32.064Z,7.88
2023-04-04T17:36:37.010Z,8.63
2023-04-04T17:41:40.611Z,8.35
2023-04-04T17:46:45.190Z,8.60
2023-04-04T17:51:50.573Z,9.50
2023-04-04T17:56:54.935Z,10.13
2023-04-04T18:01:58.569Z,9.43
2023-04-04T18:07:03.602Z,9.73
2023-04-04T18:12:07.279Z,8.77
2023-04-04T18:17:10.989Z,9.07
2023-04-04T18:22:15.995Z,9.73
2023-04-04T18:27:19.478Z,9.98
2023-04-04T18:32:25.838Z,9.82
2023-04-04T18:37:31.078Z,9.63
2023-04-04T18:42:35.182Z,10.27
2023-04-04T18:47:39.740Z,10.02
2023-04-04T18:52:45.261Z,11.48
2023-04-04T18:57:49.236Z,10.77
2023-04-04T19:02:53.223Z,10.80
2023-04-04T19:08:00.749Z,10.20
2023-04-04T19:13:04.289Z,11.40
2023-04-04T19:18:07.910Z,10.90
2023-04-04T19:23:13.214Z,10.35
2023-04-04T19:28:16.661Z,11.45
2023-04-04T19:33:23.026Z,11.60
2023-04-04T19:38:29.887Z,12.13
2023-04-04T19:43:33.494Z,12.98
2023-04-04T19:48:43.826Z,12.07
2023-04-04T19:53:50.508Z,13.15
2023-04-04T19:58:55.355Z,11.95
2023-04-04T20:04:06.572Z,11.65
2023-04-04T20:09:14.507Z,13.23
2023-04-04T20:14:22.410Z,13.77
2023-04-04T20:19:29.003Z,13.02
2023-04-04T20:24:34.051Z,13.07
2023-04-04T20:34:42.943Z,12.70
2023-04-04T20:39:54.797Z,11.90
2023-04-04T20:45:00.785Z,12.55
2023-04-04T20:50:34.790Z,12.40
2023-04-04T20:55:41.797Z,12.88
2023-04-04T21:00:46.811Z,11.88
2023-04-04T21:05:51.200Z,11.82
2023-04-04T21:10:57.329Z,10.90
2023-04-04T21:16:03.250Z,11.30
2023-04-04T21:21:18.951Z,10.30
2023-04-04T21:26:30.311Z,10.32
2023-04-04T21:31:39.204Z,9.98
2023-04-04T21:36:43.260Z,10.23
2023-04-04T21:41:51.620Z,10.20
2023-04-04T21:46:55.988Z,10.15
2023-04-04T21:51:59.435Z,11.00
2023-04-04T21:57:04.332Z,11.45
2023-04-04T22:07:11.199Z,11.52
2023-04-04T22:12:16.056Z,11.65
2023-04-04T22:22:29.869Z,11.05
2023-04-04T22:27:36.048Z,11.68
2023-04-04T22:32:43.955Z,11.55
2023-04-04T22:37:47.463Z,12.05
2023-04-04T22:42:52.407Z,11.80
2023-04-04T22:47:58.112Z,11.05
2023-04-04T22:53:01.554Z,11.15
2023-04-04T22:58:06.453Z,12.00
2023-04-04T23:08:13.005Z,12.25
2023-04-04T23:13:17.905Z,11.57
2023-04-04T23:18:22.169Z,12.40
2023-04-04T23:23:25.920Z,12.20
2023-04-04T23:28:31.049Z,12.45
2023-04-04T23:33:34.545Z,12.15
2023-04-04T23:38:37.985Z,12.27
2023-04-04T23:43:43.620Z,13.50
2023-04-04T23:48:47.250Z,12.75
2023-04-04T23:53:50.881Z,12.30
2023-04-04T23:58:55.774Z,14.10
